Time;durP1;ratioP1;P1;durP2;ratioP2;P2;SDS_P1;SDS_P2;PMS_P1;PMS_P2;Temp;Humidity;BMP_temperature;BMP_pressure;BME280_temperature;BME280_humidity;BME280_pressure;Samples;Min_cycle;Max_cycle;Signal;HPM_P1;HPM_P2
2022/06/20 00:00:08;;;;;;;7.57;3.70;;;;;;;;;;5053733;28;20091;-65
2022/06/20 00:02:42;;;;;;;5.32;3.67;;;;;;;;;;5053850;28;20049;-65
2022/06/20 00:05:16;;;;;;;6.30;3.90;;;;;;;;;;5053932;28;20394;-65
2022/06/20 00:07:44;;;;;;;8.10;4.38;;;;;;;;;;5053681;28;20044;-65
2022/06/20 00:10:13;;;;;;;10.38;4.38;;;;;;;;;;5053726;28;20044;-65
2022/06/20 00:12:40;;;;;;;11.63;4.55;;;;;;;;;;5053721;28;20123;-65
2022/06/20 00:15:09;;;;;;;9.32;4.93;;;;;;;;;;5053314;28;20052;-65
2022/06/20 00:17:36;;;;;;;7.15;4.38;;;;;;;;;;5053523;28;20522;-65
2022/06/20 00:20:04;;;;;;;10.65;5.22;;;;;;;;;;5053493;28;20052;-65
2022/06/20 00:22:31;;;;;;;10.05;4.10;;;;;;;;;;5053505;28;20041;-65
2022/06/20 00:24:59;;;;;;;8.50;4.18;;;;;;;;;;5053371;28;20037;-65
2022/06/20 00:27:26;;;;;;;7.22;4.10;;;;;;;;;;5053360;28;20455;-65
2022/06/20 00:29:54;;;;;;;6.97;4.70;;;;;;;;;;5035471;28;20033;-65
2022/06/20 00:32:21;;;;;;;7.18;4.60;;;;;;;;;;5053562;28;20131;-65
2022/06/20 00:34:49;;;;;;;6.40;4.35;;;;;;;;;;5053325;28;20037;-66
2022/06/20 00:37:18;;;;;;;7.65;4.00;;;;;;;;;;5052618;28;20069;-65
2022/06/20 00:39:47;;;;;;;4.80;3.65;;;;;;;;;;5052996;28;20127;-65
2022/06/20 00:42:14;;;;;;;6.07;3.80;;;;;;;;;;5053231;28;20036;-65
2022/06/20 00:44:46;;;;;;;5.88;3.78;;;;;;;;;;5053141;28;20398;-65
2022/06/20 00:47:16;;;;;;;4.13;3.42;;;;;;;;;;5053044;28;20053;-65
2022/06/20 00:50:02;;;;;;;5.43;3.28;;;;;;;;;;5053049;28;20041;-65
2022/06/20 00:52:34;;;;;;;3.95;3.17;;;;;;;;;;5035075;28;20479;-65
2022/06/20 00:55:04;;;;;;;5.85;3.08;;;;;;;;;;5052707;28;20048;-65
2022/06/20 00:57:41;;;;;;;4.53;3.35;;;;;;;;;;5052925;28;20065;-65
2022/06/20 01:00:13;;;;;;;5.53;3.28;;;;;;;;;;5052743;28;20076;-65
2022/06/20 01:02:44;;;;;;;7.20;3.60;;;;;;;;;;5052768;28;20047;-66
2022/06/20 01:05:20;;;;;;;5.35;3.60;;;;;;;;;;5052798;28;20048;-65
2022/06/20 01:07:50;;;;;;;6.80;3.83;;;;;;;;;;5035085;28;20090;-65
2022/06/20 01:10:19;;;;;;;6.55;3.90;;;;;;;;;;5052840;28;20041;-65
2022/06/20 01:12:59;;;;;;;7.32;3.92;;;;;;;;;;5052733;28;20060;-66
2022/06/20 01:15:32;;;;;;;4.85;4.03;;;;;;;;;;5052655;28;20044;-66
2022/06/20 01:18:00;;;;;;;6.30;4.13;;;;;;;;;;5052587;28;20063;-66
2022/06/20 01:20:28;;;;;;;5.22;3.90;;;;;;;;;;5052387;28;20141;-66
2022/06/20 01:22:56;;;;;;;7.25;3.83;;;;;;;;;;5052631;28;20048;-66
2022/06/20 01:25:40;;;;;;;6.35;3.67;;;;;;;;;;5052538;28;20035;-66
2022/06/20 01:28:08;;;;;;;6.90;4.43;;;;;;;;;;5052494;28;20045;-66
2022/06/20 01:30:38;;;;;;;8.30;4.00;;;;;;;;;;5052383;28;20041;-66
2022/06/20 01:33:06;;;;;;;4.78;3.90;;;;;;;;;;5052519;28;20518;-66
2022/06/20 01:38:21;;;;;;;6.50;3.97;;;;;;;;;;5052192;28;20045;-65
2022/06/20 01:43:36;;;;;;;7.10;5.00;;;;;;;;;;5052435;28;20049;-66
2022/06/20 01:46:09;;;;;;;6.47;4.35;;;;;;;;;;5052221;28;20041;-66
2022/06/20 01:48:49;;;;;;;7.80;4.40;;;;;;;;;;5052709;28;20406;-66
2022/06/20 01:51:22;;;;;;;7.88;4.50;;;;;;;;;;5056146;28;20044;-66
2022/06/20 01:53:51;;;;;;;5.70;3.80;;;;;;;;;;5056204;28;20040;-65
2022/06/20 01:56:19;;;;;;;5.70;4.07;;;;;;;;;;5056104;28;20056;-65
2022/06/20 01:58:47;;;;;;;5.80;4.07;;;;;;;;;;5056135;28;20444;-66
2022/06/20 02:01:15;;;;;;;7.90;4.45;;;;;;;;;;5056155;28;20045;-66
2022/06/20 02:03:44;;;;;;;6.32;4.30;;;;;;;;;;5056114;28;20040;-66
2022/06/20 02:06:15;;;;;;;12.88;4.22;;;;;;;;;;5056143;28;20072;-66
2022/06/20 02:08:43;;;;;;;7.72;4.20;;;;;;;;;;5056065;28;20048;-66
2022/06/20 02:11:13;;;;;;;6.57;4.40;;;;;;;;;;5056004;28;20052;-66
2022/06/20 02:13:42;;;;;;;6.30;4.35;;;;;;;;;;5055961;28;20125;-66
2022/06/20 02:16:11;;;;;;;6.65;4.22;;;;;;;;;;5056095;28;20049;-66
2022/06/20 02:18:40;;;;;;;6.97;4.35;;;;;;;;;;5055783;28;20049;-66
2022/06/20 02:21:09;;;;;;;4.97;4.03;;;;;;;;;;5055792;28;20546;-66
2022/06/20 02:23:40;;;;;;;7.03;4.32;;;;;;;;;;5055790;28;20121;-66
2022/06/20 02:26:08;;;;;;;8.30;4.30;;;;;;;;;;5055947;28;20056;-66
2022/06/20 02:28:38;;;;;;;5.50;4.40;;;;;;;;;;5055694;28;20045;-66
2022/06/20 02:31:07;;;;;;;9.95;5.43;;;;;;;;;;5055624;28;20124;-66
2022/06/20 02:33:34;;;;;;;8.00;4.38;;;;;;;;;;5055607;28;20041;-66
2022/06/20 02:36:04;;;;;;;8.10;4.18;;;;;;;;;;5055408;28;20076;-66
2022/06/20 02:38:32;;;;;;;8.25;4.28;;;;;;;;;;5055390;28;20063;-66
2022/06/20 02:41:00;;;;;;;9.95;5.03;;;;;;;;;;5055343;28;20158;-66
2022/06/20 02:43:30;;;;;;;9.45;4.50;;;;;;;;;;5055414;28;20044;-66
2022/06/20 02:45:59;;;;;;;7.70;4.47;;;;;;;;;;5055298;28;20041;-66
2022/06/20 02:48:28;;;;;;;8.32;4.65;;;;;;;;;;5055289;28;20037;-65
2022/06/20 02:50:58;;;;;;;7.63;4.20;;;;;;;;;;5055295;28;20128;-66
2022/06/20 02:53:31;;;;;;;11.00;4.45;;;;;;;;;;5055055;28;20036;-66
2022/06/20 02:55:59;;;;;;;17.23;9.93;;;;;;;;;;5055191;28;20084;-66
2022/06/20 02:58:29;;;;;;;23.05;17.17;;;;;;;;;;5054936;28;20048;-66
2022/06/20 03:01:03;;;;;;;35.00;23.73;;;;;;;;;;5054478;28;20110;-66
2022/06/20 03:03:36;;;;;;;34.97;21.10;;;;;;;;;;5054862;28;20041;-66
2022/06/20 03:06:04;;;;;;;142.65;54.17;;;;;;;;;;5055014;28;20052;-66
2022/06/20 03:08:32;;;;;;;175.38;68.53;;;;;;;;;;5054886;28;20040;-66
2022/06/20 03:11:05;;;;;;;141.43;65.38;;;;;;;;;;5054821;28;20045;-66
2022/06/20 03:13:33;;;;;;;90.38;58.20;;;;;;;;;;5054822;28;20525;-66
2022/06/20 03:16:02;;;;;;;70.20;46.90;;;;;;;;;;5054666;28;20045;-66
2022/06/20 03:18:30;;;;;;;83.57;51.20;;;;;;;;;;5054686;28;20045;-66
2022/06/20 03:20:58;;;;;;;98.65;58.88;;;;;;;;;;5054514;28;20479;-66
2022/06/20 03:23:30;;;;;;;63.85;39.83;;;;;;;;;;5036707;28;20087;-66
2022/06/20 03:25:59;;;;;;;39.90;24.88;;;;;;;;;;5054568;28;20064;-66
2022/06/20 03:28:28;;;;;;;51.08;33.25;;;;;;;;;;5054565;28;20036;-66
2022/06/20 03:31:04;;;;;;;75.63;45.15;;;;;;;;;;5036609;28;20053;-66
2022/06/20 03:33:32;;;;;;;106.55;65.15;;;;;;;;;;5054381;28;20466;-66
2022/06/20 03:36:01;;;;;;;108.20;66.43;;;;;;;;;;5054201;28;20402;-66
2022/06/20 03:38:28;;;;;;;96.28;56.13;;;;;;;;;;5054097;28;20045;-66
2022/06/20 03:40:55;;;;;;;88.68;50.30;;;;;;;;;;5054045;28;20460;-66
2022/06/20 03:43:25;;;;;;;72.82;45.10;;;;;;;;;;5053049;28;20068;-66
2022/06/20 03:45:56;;;;;;;54.00;33.55;;;;;;;;;;5052881;28;20068;-66
2022/06/20 03:48:28;;;;;;;16.20;9.73;;;;;;;;;;5053828;28;20486;-68
2022/06/20 03:50:58;;;;;;;27.83;17.08;;;;;;;;;;5054053;28;20091;-67
2022/06/20 03:53:36;;;;;;;43.47;27.27;;;;;;;;;;5053838;28;20491;-67
2022/06/20 03:56:23;;;;;;;48.55;30.10;;;;;;;;;;5053819;28;20513;-67
2022/06/20 03:58:55;;;;;;;64.95;37.88;;;;;;;;;;5053908;28;20072;-67
2022/06/20 04:01:35;;;;;;;70.97;38.60;;;;;;;;;;5053579;28;20037;-67
2022/06/20 04:04:35;;;;;;;47.90;30.42;;;;;;;;;;5053959;28;20075;-72
2022/06/20 04:07:07;;;;;;;31.98;19.85;;;;;;;;;;4999914;28;20045;-67
2022/06/20 04:12:38;;;;;;;16.95;11.55;;;;;;;;;;5052603;28;20033;-67
2022/06/20 04:15:16;;;;;;;13.60;8.73;;;;;;;;;;5035842;28;20063;-67
2022/06/20 04:20:48;;;;;;;9.70;6.45;;;;;;;;;;5053266;28;20045;-67
2022/06/20 04:23:20;;;;;;;12.00;6.80;;;;;;;;;;5053566;28;20433;-67
2022/06/20 04:25:52;;;;;;;14.52;7.85;;;;;;;;;;5053384;28;20128;-67
2022/06/20 04:28:26;;;;;;;7.85;6.18;;;;;;;;;;5052895;28;20098;-67
2022/06/20 04:30:58;;;;;;;11.68;6.18;;;;;;;;;;5053185;28;20049;-67
2022/06/20 04:33:31;;;;;;;8.77;5.60;;;;;;;;;;5035754;28;20036;-66
2022/06/20 04:36:06;;;;;;;8.65;5.65;;;;;;;;;;5035411;28;20080;-66
2022/06/20 04:38:37;;;;;;;6.28;4.80;;;;;;;;;;5053016;28;20052;-66
2022/06/20 04:41:14;;;;;;;9.65;7.55;;;;;;;;;;5053007;28;20127;-66
2022/06/20 04:43:51;;;;;;;5.85;5.07;;;;;;;;;;5035155;28;20106;-66
2022/06/20 04:46:23;;;;;;;11.48;5.15;;;;;;;;;;5052848;28;20088;-66
2022/06/20 04:48:50;;;;;;;8.15;6.03;;;;;;;;;;5052959;28;20069;-67
2022/06/20 04:51:20;;;;;;;10.38;8.02;;;;;;;;;;5053033;28;20052;-66
2022/06/20 04:53:48;;;;;;;12.80;6.20;;;;;;;;;;5052442;28;20072;-66
2022/06/20 04:56:25;;;;;;;9.05;5.18;;;;;;;;;;5052859;28;20044;-66
2022/06/20 04:58:54;;;;;;;8.95;6.18;;;;;;;;;;5053068;28;20427;-66
2022/06/20 05:01:21;;;;;;;7.15;5.15;;;;;;;;;;5034886;28;20048;-66
2022/06/20 05:03:55;;;;;;;8.15;4.95;;;;;;;;;;5052823;28;20111;-66
2022/06/20 05:06:25;;;;;;;7.40;5.95;;;;;;;;;;5052739;28;20048;-66
2022/06/20 05:08:53;;;;;;;10.73;6.82;;;;;;;;;;5034750;28;20041;-66
2022/06/20 05:11:27;;;;;;;7.13;3.88;;;;;;;;;;5035000;28;20414;-66
2022/06/20 05:13:57;;;;;;;10.52;4.38;;;;;;;;;;5052919;28;20383;-66
2022/06/20 05:16:28;;;;;;;9.57;4.32;;;;;;;;;;5052581;28;20116;-66
2022/06/20 05:18:57;;;;;;;7.93;3.80;;;;;;;;;;5052629;28;20043;-66
2022/06/20 05:21:27;;;;;;;8.55;4.00;;;;;;;;;;5034818;28;20036;-66
2022/06/20 05:23:55;;;;;;;7.82;4.65;;;;;;;;;;5052347;28;20045;-66
2022/06/20 05:26:24;;;;;;;13.32;3.97;;;;;;;;;;5052553;28;20041;-66
2022/06/20 05:28:54;;;;;;;5.53;3.75;;;;;;;;;;5052737;28;20399;-66
2022/06/20 05:31:32;;;;;;;5.93;4.10;;;;;;;;;;5052314;28;20037;-64
2022/06/20 05:34:15;;;;;;;6.18;4.00;;;;;;;;;;5052429;28;20060;-65
2022/06/20 05:36:43;;;;;;;6.10;4.63;;;;;;;;;;5052134;28;20125;-65
2022/06/20 05:39:31;;;;;;;5.53;4.22;;;;;;;;;;5052067;28;20041;-65
2022/06/20 05:41:59;;;;;;;7.03;3.50;;;;;;;;;;5036031;28;20128;-65
2022/06/20 05:44:26;;;;;;;5.97;4.18;;;;;;;;;;5052294;28;20547;-65
2022/06/20 05:47:00;;;;;;;8.98;4.22;;;;;;;;;;5052244;28;20068;-65
2022/06/20 05:49:31;;;;;;;6.63;3.63;;;;;;;;;;5052291;28;20125;-65
2022/06/20 05:51:59;;;;;;;11.95;4.30;;;;;;;;;;5052273;28;20068;-65
2022/06/20 05:54:29;;;;;;;7.78;3.80;;;;;;;;;;5052206;28;20049;-65
2022/06/20 05:56:59;;;;;;;6.72;3.50;;;;;;;;;;5034588;28;20033;-65
2022/06/20 05:59:31;;;;;;;7.10;3.88;;;;;;;;;;5052237;28;20474;-65
2022/06/20 06:02:00;;;;;;;5.50;3.50;;;;;;;;;;5052209;28;20068;-65
2022/06/20 06:04:36;;;;;;;6.88;3.80;;;;;;;;;;5052131;28;20051;-65
2022/06/20 06:07:09;;;;;;;5.40;4.57;;;;;;;;;;5052189;28;20120;-65
2022/06/20 06:09:36;;;;;;;7.03;4.13;;;;;;;;;;5034463;28;20065;-65
2022/06/20 06:12:08;;;;;;;5.55;4.10;;;;;;;;;;5052061;28;20140;-65
2022/06/20 06:14:41;;;;;;;3.90;3.50;;;;;;;;;;5051952;28;20049;-65
2022/06/20 06:17:16;;;;;;;6.07;4.35;;;;;;;;;;5052083;28;20124;-65
2022/06/20 06:20:10;;;;;;;5.70;3.70;;;;;;;;;;5051867;28;20051;-65
2022/06/20 06:22:39;;;;;;;6.03;4.55;;;;;;;;;;5051923;28;20119;-65
2022/06/20 06:25:16;;;;;;;7.63;3.30;;;;;;;;;;5051886;28;20116;-65
2022/06/20 06:27:44;;;;;;;9.25;4.30;;;;;;;;;;5051899;28;20041;-65
2022/06/20 06:30:17;;;;;;;5.68;3.00;;;;;;;;;;5051969;28;20044;-65
2022/06/20 06:33:07;;;;;;;7.53;3.75;;;;;;;;;;5052021;28;20045;-65
2022/06/20 06:35:36;;;;;;;6.55;3.78;;;;;;;;;;5053650;28;20047;-65
2022/06/20 06:38:06;;;;;;;5.25;3.33;;;;;;;;;;5034059;28;20053;-65
2022/06/20 06:40:46;;;;;;;12.98;6.90;;;;;;;;;;5035514;28;20084;-65
2022/06/20 06:43:18;;;;;;;8.32;4.80;;;;;;;;;;5034235;28;20068;-66
2022/06/20 06:45:46;;;;;;;7.65;3.53;;;;;;;;;;5035529;28;20037;-66
2022/06/20 06:48:23;;;;;;;6.07;3.47;;;;;;;;;;5035474;28;20099;-65
2022/06/20 06:50:57;;;;;;;7.93;4.07;;;;;;;;;;5035279;28;20045;-65
2022/06/20 06:53:32;;;;;;;11.15;5.75;;;;;;;;;;5035335;28;20489;-66
2022/06/20 06:56:02;;;;;;;5.90;3.35;;;;;;;;;;5033983;28;20053;-65
2022/06/20 06:58:46;;;;;;;5.97;3.47;;;;;;;;;;5035061;28;20056;-65
2022/06/20 07:01:26;;;;;;;3.72;2.50;;;;;;;;;;5035084;28;20095;-65
2022/06/20 07:04:00;;;;;;;4.65;3.42;;;;;;;;;;5035039;28;20042;-65
2022/06/20 07:06:31;;;;;;;4.07;2.75;;;;;;;;;;5035006;28;20037;-65
2022/06/20 07:09:05;;;;;;;3.67;2.92;;;;;;;;;;5034945;28;20067;-65
2022/06/20 07:11:41;;;;;;;4.70;3.40;;;;;;;;;;5033645;28;20057;-65
2022/06/20 07:14:18;;;;;;;4.65;3.60;;;;;;;;;;5035148;28;20524;-65
2022/06/20 07:17:02;;;;;;;4.38;2.92;;;;;;;;;;5034711;28;20442;-65
2022/06/20 07:19:29;;;;;;;3.65;2.85;;;;;;;;;;5033555;28;20041;-65
2022/06/20 07:21:58;;;;;;;4.38;2.95;;;;;;;;;;5034935;28;20544;-66
2022/06/20 07:24:28;;;;;;;4.05;2.95;;;;;;;;;;5034675;28;20103;-65
2022/06/20 07:27:06;;;;;;;4.85;2.70;;;;;;;;;;5034723;28;20042;-65
2022/06/20 07:29:44;;;;;;;6.13;4.13;;;;;;;;;;5034596;28;20053;-65
2022/06/20 07:32:13;;;;;;;5.55;3.05;;;;;;;;;;5034562;28;20132;-65
2022/06/20 07:34:46;;;;;;;6.53;3.15;;;;;;;;;;5034422;28;20143;-65
2022/06/20 07:37:17;;;;;;;2.53;2.33;;;;;;;;;;5034896;28;20275;-65
2022/06/20 07:39:45;;;;;;;6.20;3.72;;;;;;;;;;5054340;28;20479;-65
2022/06/20 07:42:21;;;;;;;4.47;4.07;;;;;;;;;;5053934;28;20565;-65
2022/06/20 07:44:51;;;;;;;5.68;2.70;;;;;;;;;;5054269;28;20060;-65
2022/06/20 07:47:21;;;;;;;14.77;10.32;;;;;;;;;;5054088;28;20052;-65
2022/06/20 07:49:51;;;;;;;3.80;2.13;;;;;;;;;;5054036;28;20056;-65
2022/06/20 07:52:21;;;;;;;5.00;4.45;;;;;;;;;;5053978;28;20037;-65
2022/06/20 07:54:55;;;;;;;5.03;2.92;;;;;;;;;;5053963;28;20254;-66
2022/06/20 07:57:28;;;;;;;5.03;3.08;;;;;;;;;;5054033;28;20072;-65
2022/06/20 08:00:04;;;;;;;4.25;3.10;;;;;;;;;;5053940;28;20080;-65
2022/06/20 08:02:34;;;;;;;2.80;2.50;;;;;;;;;;5053979;28;20497;-65
2022/06/20 08:05:02;;;;;;;4.13;3.28;;;;;;;;;;5053814;28;20501;-65
2022/06/20 08:07:36;;;;;;;4.20;2.30;;;;;;;;;;5053722;28;20064;-66
2022/06/20 08:10:27;;;;;;;3.58;2.55;;;;;;;;;;5053953;28;20367;-66
2022/06/20 08:12:55;;;;;;;3.40;2.42;;;;;;;;;;5041536;28;20050;-64
2022/06/20 08:15:43;;;;;;;3.63;2.08;;;;;;;;;;5053599;28;20514;-64
2022/06/20 08:18:12;;;;;;;2.85;1.83;;;;;;;;;;5037132;28;20120;-64
2022/06/20 08:20:42;;;;;;;2.53;2.33;;;;;;;;;;5053329;28;20123;-64
2022/06/20 08:23:15;;;;;;;5.22;2.38;;;;;;;;;;5053359;28;20048;-64
2022/06/20 08:25:47;;;;;;;4.35;2.10;;;;;;;;;;5053465;28;20045;-64
2022/06/20 08:28:14;;;;;;;4.80;3.30;;;;;;;;;;5053428;28;20571;-64
2022/06/20 08:30:49;;;;;;;2.97;2.50;;;;;;;;;;5053341;28;20044;-64
2022/06/20 08:33:25;;;;;;;5.68;2.70;;;;;;;;;;5053371;28;20049;-63
2022/06/20 08:35:57;;;;;;;2.60;2.40;;;;;;;;;;5053580;28;20037;-64
2022/06/20 08:38:33;;;;;;;5.47;2.58;;;;;;;;;;5053100;28;20067;-64
2022/06/20 08:41:03;;;;;;;4.18;3.20;;;;;;;;;;5053153;28;20035;-66
2022/06/20 08:43:46;;;;;;;7.47;4.80;;;;;;;;;;5053086;28;20098;-64
2022/06/20 08:46:22;;;;;;;5.00;3.03;;;;;;;;;;5053085;28;20040;-64
2022/06/20 08:48:55;;;;;;;4.70;2.70;;;;;;;;;;5052936;28;20103;-65
2022/06/20 08:51:42;;;;;;;2.90;2.50;;;;;;;;;;5053041;28;20045;-65
2022/06/20 08:54:20;;;;;;;5.18;3.78;;;;;;;;;;5052927;28;20110;-66
2022/06/20 08:57:10;;;;;;;4.28;3.40;;;;;;;;;;5053036;28;20051;-65
2022/06/20 08:59:58;;;;;;;5.13;4.00;;;;;;;;;;5052740;28;20032;-65
2022/06/20 09:02:34;;;;;;;3.22;2.80;;;;;;;;;;5052870;28;20055;-65
2022/06/20 09:05:24;;;;;;;6.50;4.80;;;;;;;;;;5052674;28;20051;-65
2022/06/20 09:08:01;;;;;;;4.63;2.95;;;;;;;;;;5052595;28;20120;-65
2022/06/20 09:10:34;;;;;;;5.57;3.63;;;;;;;;;;5052675;28;20134;-65
2022/06/20 09:13:17;;;;;;;5.28;3.85;;;;;;;;;;5052631;28;20116;-65
2022/06/20 09:15:50;;;;;;;5.03;3.05;;;;;;;;;;5052544;28;20056;-65
2022/06/20 09:18:30;;;;;;;5.70;3.10;;;;;;;;;;5052606;28;20120;-65
2022/06/20 09:21:16;;;;;;;7.18;3.15;;;;;;;;;;5052425;28;20098;-65
2022/06/20 09:23:43;;;;;;;4.10;3.05;;;;;;;;;;5052565;28;20041;-65
2022/06/20 09:26:25;;;;;;;4.35;3.00;;;;;;;;;;5034629;28;20041;-65
2022/06/20 09:28:53;;;;;;;4.13;2.80;;;;;;;;;;5052498;28;20072;-65
2022/06/20 09:31:39;;;;;;;5.68;3.53;;;;;;;;;;5052305;28;20418;-65
2022/06/20 09:34:39;;;;;;;3.53;2.47;;;;;;;;;;5052550;28;20052;-65
2022/06/20 09:37:09;;;;;;;5.43;2.38;;;;;;;;;;4998772;28;20136;-65
2022/06/20 09:39:56;;;;;;;3.95;2.70;;;;;;;;;;5052614;28;20044;-65
2022/06/20 09:42:48;;;;;;;4.22;2.70;;;;;;;;;;5052237;28;20129;-65
2022/06/20 09:45:36;;;;;;;2.88;2.30;;;;;;;;;;5034719;28;20102;-65
2022/06/20 09:48:07;;;;;;;4.78;3.05;;;;;;;;;;5052283;28;20418;-65
2022/06/20 09:50:35;;;;;;;6.40;2.88;;;;;;;;;;5052225;28;20087;-65
2022/06/20 09:53:23;;;;;;;13.73;3.60;;;;;;;;;;5052311;28;20041;-65
2022/06/20 09:56:09;;;;;;;4.38;2.88;;;;;;;;;;5002988;28;20052;-65
2022/06/20 09:58:46;;;;;;;3.00;2.70;;;;;;;;;;5034310;28;20099;-65
2022/06/20 10:01:22;;;;;;;2.90;2.58;;;;;;;;;;5052178;28;20045;-65
2022/06/20 10:04:02;;;;;;;2.90;2.22;;;;;;;;;;5052223;28;20491;-65
2022/06/20 10:06:40;;;;;;;4.32;2.90;;;;;;;;;;5052149;28;20091;-65
2022/06/20 10:09:34;;;;;;;4.03;2.70;;;;;;;;;;5034213;28;20041;-65
2022/06/20 10:12:40;;;;;;;4.45;2.95;;;;;;;;;;5052405;28;20065;-65
2022/06/20 10:15:26;;;;;;;4.10;2.30;;;;;;;;;;4955642;29;20047;-65
2022/06/20 10:18:03;;;;;;;3.22;2.80;;;;;;;;;;4955636;29;20055;-66
2022/06/20 10:20:34;;;;;;;4.53;2.60;;;;;;;;;;5024619;28;20124;-65
2022/06/20 10:23:16;;;;;;;7.90;5.53;;;;;;;;;;5055666;28;20045;-65
2022/06/20 10:25:49;;;;;;;19.33;15.85;;;;;;;;;;5055736;28;20033;-65
2022/06/20 10:28:21;;;;;;;4.95;3.17;;;;;;;;;;5055689;28;20119;-65
2022/06/20 10:31:07;;;;;;;3.85;2.67;;;;;;;;;;5055835;28;20037;-65
2022/06/20 10:33:35;;;;;;;5.28;3.10;;;;;;;;;;5055737;28;20509;-65
2022/06/20 10:36:13;;;;;;;5.18;2.95;;;;;;;;;;5055502;28;20032;-65
2022/06/20 10:38:50;;;;;;;6.22;2.75;;;;;;;;;;5037422;28;20061;-65
2022/06/20 10:41:22;;;;;;;6.60;2.65;;;;;;;;;;5055397;28;20041;-65
2022/06/20 10:43:56;;;;;;;5.13;3.15;;;;;;;;;;5055573;28;20102;-65
2022/06/20 10:46:32;;;;;;;2.97;2.72;;;;;;;;;;5055417;28;20047;-65
2022/06/20 10:49:09;;;;;;;5.75;3.20;;;;;;;;;;5037831;28;20045;-65
2022/06/20 10:51:52;;;;;;;5.03;3.20;;;;;;;;;;5055299;28;20548;-65
2022/06/20 10:54:19;;;;;;;4.95;2.95;;;;;;;;;;5055196;28;20064;-65
2022/06/20 10:56:47;;;;;;;3.88;3.38;;;;;;;;;;5055413;28;20048;-65
2022/06/20 10:59:17;;;;;;;4.97;3.40;;;;;;;;;;5055115;28;20040;-65
2022/06/20 11:01:45;;;;;;;3.72;3.33;;;;;;;;;;5055019;28;20041;-65
2022/06/20 11:04:16;;;;;;;5.95;3.17;;;;;;;;;;5055011;28;20045;-65
2022/06/20 11:06:47;;;;;;;6.25;3.33;;;;;;;;;;5054953;28;20045;-65
2022/06/20 11:09:31;;;;;;;5.63;3.50;;;;;;;;;;5054896;28;20559;-65
2022/06/20 11:12:01;;;;;;;4.57;3.33;;;;;;;;;;5037259;28;20119;-65
2022/06/20 11:14:52;;;;;;;5.82;3.25;;;;;;;;;;5054889;28;20072;-65
2022/06/20 11:17:25;;;;;;;4.80;3.72;;;;;;;;;;5042756;28;20435;-65
2022/06/20 11:19:59;;;;;;;6.30;3.63;;;;;;;;;;5054880;28;20112;-66
2022/06/20 11:22:34;;;;;;;6.35;4.13;;;;;;;;;;5054357;28;20047;-65
2022/06/20 11:25:17;;;;;;;4.88;4.03;;;;;;;;;;5054608;28;20467;-65
2022/06/20 11:27:53;;;;;;;4.93;3.45;;;;;;;;;;5054601;28;20079;-65
2022/06/20 11:30:38;;;;;;;5.72;3.97;;;;;;;;;;5054635;28;20069;-65
2022/06/20 11:33:08;;;;;;;4.78;3.42;;;;;;;;;;5054489;28;20047;-65
2022/06/20 11:35:38;;;;;;;3.92;3.17;;;;;;;;;;5054515;28;20045;-65
2022/06/20 11:38:06;;;;;;;4.82;4.00;;;;;;;;;;5054393;28;20114;-65
2022/06/20 11:40:54;;;;;;;6.10;4.07;;;;;;;;;;5054401;28;20103;-65
2022/06/20 11:43:21;;;;;;;5.82;4.25;;;;;;;;;;5054243;28;20072;-65
2022/06/20 11:46:02;;;;;;;6.18;3.40;;;;;;;;;;5054367;28;20060;-65
2022/06/20 11:48:44;;;;;;;7.70;4.20;;;;;;;;;;5054191;28;20090;-66
2022/06/20 11:51:15;;;;;;;7.70;4.70;;;;;;;;;;5054159;28;20043;-65
2022/06/20 11:53:47;;;;;;;10.18;6.43;;;;;;;;;;5054141;28;20053;-65
2022/06/20 11:56:24;;;;;;;5.88;4.63;;;;;;;;;;5036115;28;20051;-66
2022/06/20 11:59:21;;;;;;;4.88;3.80;;;;;;;;;;5053936;28;20139;-65
2022/06/20 12:01:56;;;;;;;8.48;4.70;;;;;;;;;;5054165;28;20447;-66
2022/06/20 12:04:28;;;;;;;7.72;3.78;;;;;;;;;;5053632;28;20037;-65
2022/06/20 12:07:04;;;;;;;7.88;3.67;;;;;;;;;;5053692;28;20041;-66
2022/06/20 12:09:38;;;;;;;7.85;4.95;;;;;;;;;;5053990;28;20398;-66
2022/06/20 12:12:14;;;;;;;8.13;5.03;;;;;;;;;;5053604;28;20486;-66
2022/06/20 12:14:42;;;;;;;4.63;4.18;;;;;;;;;;5036044;28;20045;-66
2022/06/20 12:17:13;;;;;;;8.23;4.35;;;;;;;;;;5053816;28;20048;-66
2022/06/20 12:25:44;;;;;;;7.40;4.30;;;;;;;;;;5053462;28;20074;-66
2022/06/20 12:28:18;;;;;;;5.45;3.72;;;;;;;;;;5053295;28;20120;-66
2022/06/20 12:30:47;;;;;;;7.05;4.18;;;;;;;;;;5053652;28;20044;-66
2022/06/20 12:33:15;;;;;;;6.13;4.82;;;;;;;;;;5052525;28;20516;-65
2022/06/20 12:35:47;;;;;;;10.43;4.40;;;;;;;;;;5053281;28;20104;-65
2022/06/20 12:38:22;;;;;;;11.70;4.30;;;;;;;;;;5053045;28;20061;-65
2022/06/20 12:40:54;;;;;;;6.63;4.00;;;;;;;;;;5053052;28;20044;-65
2022/06/20 12:43:24;;;;;;;6.88;4.07;;;;;;;;;;5052949;28;20041;-65
2022/06/20 12:45:51;;;;;;;5.75;4.03;;;;;;;;;;5053203;28;20037;-65
2022/06/20 12:48:19;;;;;;;6.78;3.90;;;;;;;;;;5053332;28;20371;-65
2022/06/20 12:50:49;;;;;;;6.80;4.30;;;;;;;;;;5053035;28;20517;-64
2022/06/20 12:53:17;;;;;;;5.13;3.53;;;;;;;;;;5052946;28;20068;-64
2022/06/20 12:55:56;;;;;;;5.82;3.80;;;;;;;;;;5052954;28;20053;-64
2022/06/20 12:58:32;;;;;;;6.93;4.45;;;;;;;;;;5052472;28;20360;-66
2022/06/20 13:01:05;;;;;;;7.25;3.80;;;;;;;;;;5052642;28;20483;-64
2022/06/20 13:03:38;;;;;;;5.72;4.20;;;;;;;;;;5052542;28;20044;-65
2022/06/20 13:06:28;;;;;;;5.28;3.97;;;;;;;;;;5052693;28;20060;-65
2022/06/20 13:09:15;;;;;;;9.55;4.00;;;;;;;;;;5035094;28;20041;-65
2022/06/20 13:11:43;;;;;;;7.65;4.18;;;;;;;;;;5052886;28;20041;-65
2022/06/20 13:14:29;;;;;;;8.00;4.30;;;;;;;;;;5052613;28;20124;-64
2022/06/20 13:17:03;;;;;;;5.47;4.10;;;;;;;;;;5052594;28;20037;-65
2022/06/20 13:19:59;;;;;;;10.38;4.55;;;;;;;;;;5052638;28;20513;-65
2022/06/20 13:22:50;;;;;;;6.03;4.28;;;;;;;;;;4965186;28;20556;-65
2022/06/20 13:25:23;;;;;;;7.00;4.15;;;;;;;;;;5052380;28;20103;-65
2022/06/20 13:27:59;;;;;;;8.57;4.63;;;;;;;;;;5052511;28;20116;-67
2022/06/20 13:30:40;;;;;;;5.10;4.00;;;;;;;;;;5052382;28;20041;-65
2022/06/20 13:33:26;;;;;;;7.15;3.95;;;;;;;;;;5052434;28;20041;-65
2022/06/20 13:35:58;;;;;;;6.55;3.92;;;;;;;;;;5052412;28;20128;-65
2022/06/20 13:38:28;;;;;;;5.80;4.30;;;;;;;;;;5052143;28;20053;-66
2022/06/20 13:41:07;;;;;;;6.63;3.70;;;;;;;;;;5052233;28;20143;-66
2022/06/20 13:43:44;;;;;;;7.00;4.80;;;;;;;;;;5052631;28;20102;-66
2022/06/20 13:46:35;;;;;;;6.38;4.18;;;;;;;;;;5056409;28;20487;-66
2022/06/20 13:49:30;;;;;;;7.68;4.40;;;;;;;;;;5044501;28;20087;-65
2022/06/20 13:52:18;;;;;;;7.28;4.00;;;;;;;;;;5052499;28;20103;-65
2022/06/20 13:54:51;;;;;;;6.32;3.80;;;;;;;;;;5056607;28;20033;-65
2022/06/20 13:57:26;;;;;;;5.38;4.35;;;;;;;;;;5056471;28;20456;-65
2022/06/20 13:59:58;;;;;;;6.93;5.35;;;;;;;;;;5056418;28;20449;-65
2022/06/20 14:02:28;;;;;;;10.63;4.80;;;;;;;;;;5056053;28;20037;-65
2022/06/20 14:04:58;;;;;;;9.52;6.35;;;;;;;;;;5056220;28;20431;-65
2022/06/20 14:07:31;;;;;;;7.95;5.10;;;;;;;;;;5055424;28;20080;-65
2022/06/20 14:10:00;;;;;;;6.95;4.78;;;;;;;;;;5055616;28;20067;-65
2022/06/20 14:12:41;;;;;;;6.45;5.20;;;;;;;;;;5055601;28;20052;-65
2022/06/20 14:15:20;;;;;;;6.50;5.68;;;;;;;;;;5055531;28;20045;-65
2022/06/20 14:17:53;;;;;;;8.38;5.28;;;;;;;;;;5055660;28;20071;-65
2022/06/20 14:20:24;;;;;;;8.05;5.10;;;;;;;;;;5055321;28;20060;-65
2022/06/20 14:22:52;;;;;;;6.57;4.45;;;;;;;;;;5055804;28;20442;-66
2022/06/20 14:25:20;;;;;;;7.43;4.30;;;;;;;;;;5055675;28;20372;-67
2022/06/20 14:27:55;;;;;;;5.97;4.47;;;;;;;;;;5055490;28;20055;-67
2022/06/20 14:30:28;;;;;;;6.55;5.03;;;;;;;;;;5055495;28;20091;-67
2022/06/20 14:33:14;;;;;;;4.40;4.00;;;;;;;;;;5055601;28;20095;-66
2022/06/20 14:35:47;;;;;;;9.00;4.45;;;;;;;;;;5055507;28;20490;-66
2022/06/20 14:38:41;;;;;;;8.13;4.15;;;;;;;;;;5055290;28;20095;-66
2022/06/20 14:44:02;;;;;;;6.00;4.10;;;;;;;;;;5055294;28;20557;-67
2022/06/20 14:46:36;;;;;;;8.65;5.25;;;;;;;;;;5037684;28;20045;-67
2022/06/20 14:49:10;;;;;;;7.57;4.60;;;;;;;;;;5055257;28;20045;-67
2022/06/20 14:51:40;;;;;;;11.80;5.18;;;;;;;;;;5055274;28;20045;-67
2022/06/20 14:54:08;;;;;;;10.70;4.93;;;;;;;;;;5055149;28;20041;-66
2022/06/20 14:56:47;;;;;;;9.55;6.53;;;;;;;;;;5054473;28;20095;-66
2022/06/20 14:59:20;;;;;;;8.90;5.05;;;;;;;;;;5054925;28;20498;-67
2022/06/20 15:01:52;;;;;;;8.30;4.60;;;;;;;;;;5055074;28;20071;-67
2022/06/20 15:04:32;;;;;;;7.70;4.68;;;;;;;;;;5054839;28;20052;-66
2022/06/20 15:07:15;;;;;;;6.30;4.90;;;;;;;;;;5054974;28;20051;-66
2022/06/20 15:09:49;;;;;;;6.07;3.90;;;;;;;;;;5054859;28;20447;-66
2022/06/20 15:12:29;;;;;;;7.20;3.72;;;;;;;;;;5054953;28;20071;-66
2022/06/20 15:14:57;;;;;;;5.28;3.95;;;;;;;;;;5054765;28;20045;-66
2022/06/20 15:17:27;;;;;;;7.28;3.75;;;;;;;;;;5054719;28;20399;-66
2022/06/20 15:19:55;;;;;;;11.73;3.90;;;;;;;;;;5054914;28;20368;-66
2022/06/20 15:22:26;;;;;;;7.70;4.30;;;;;;;;;;5054530;28;20075;-66
2022/06/20 15:25:12;;;;;;;8.13;4.40;;;;;;;;;;5054565;28;20457;-66
2022/06/20 15:28:00;;;;;;;6.88;4.55;;;;;;;;;;5054622;28;20124;-66
2022/06/20 15:30:35;;;;;;;7.45;4.68;;;;;;;;;;5054223;28;20398;-66
2022/06/20 15:33:10;;;;;;;8.48;4.63;;;;;;;;;;5054442;28;20084;-66
2022/06/20 15:35:58;;;;;;;7.95;4.80;;;;;;;;;;5054424;28;20068;-65
2022/06/20 15:38:32;;;;;;;10.18;6.03;;;;;;;;;;5054205;28;20064;-66
2022/06/20 15:41:00;;;;;;;7.22;4.82;;;;;;;;;;5054557;28;20045;-65